Terminal Aerodrome Forecast
Issued by NWS

Home | Current Version | Previous Version | Text Only | Print | Product List | Glossary On
Versions: 1 2 3 4 5 6 7 8 9 10 11 12 13 14 15 16 17 18
000
FTUS43 KDVN 300113 AAA
TAFBRL
TAF AMD
KBRL 300113Z 3001/3024 01006KT P6SM SCT020 BKN040
     FM300300 03003KT 5SM BR BKN025
     FM300700 00000KT 1SM BR OVC014
      TEMPO 3009/3013 1/2SM FG VV002
     FM301500 VRB03KT 3SM BR BKN009
     FM301700 14004KT P6SM SCT025=

USA.gov is the U.S. government's official web portal to all federal, state and local government web resources and services.